Time;durP1;ratioP1;P1;durP2;ratioP2;P2;SDS_P1;SDS_P2;PMS_P1;PMS_P2;Temp;Humidity;BMP_temperature;BMP_pressure;BME280_temperature;BME280_humidity;BME280_pressure;Samples;Min_cycle;Max_cycle;Signal;HPM_P1;HPM_P2
2022/12/12 00:01:36;;;;;;;39.05;16.33;;;;;;;;;;8407737;28;20511;-89
2022/12/12 00:05:39;;;;;;;36.15;14.00;;;;;;;;;;8398256;28;20048;-92
2022/12/12 00:09:45;;;;;;;29.27;13.25;;;;;;;;;;8414637;28;20215;-90
2022/12/12 00:13:48;;;;;;;35.20;14.98;;;;;;;;;;8407585;28;20045;-94
2022/12/12 00:17:51;;;;;;;36.40;13.85;;;;;;;;;;8409120;28;20106;-82
2022/12/12 00:21:54;;;;;;;28.88;11.98;;;;;;;;;;8405509;28;20044;-82
2022/12/12 00:26:00;;;;;;;36.33;14.25;;;;;;;;;;8409585;28;20562;-82
2022/12/12 00:30:04;;;;;;;26.27;10.52;;;;;;;;;;8411977;28;20048;-81
2022/12/12 00:34:06;;;;;;;16.88;8.35;;;;;;;;;;8414746;28;20079;-83
2022/12/12 00:38:12;;;;;;;35.97;14.75;;;;;;;;;;8412417;28;20154;-82
2022/12/12 00:42:15;;;;;;;30.42;13.18;;;;;;;;;;8407112;28;20048;-89
2022/12/12 00:46:22;;;;;;;33.85;14.88;;;;;;;;;;8400513;28;20045;-83
2022/12/12 00:50:25;;;;;;;37.30;12.85;;;;;;;;;;8413070;28;20066;-86
2022/12/12 00:54:28;;;;;;;34.33;14.48;;;;;;;;;;8421393;28;20049;-81
2022/12/12 00:58:32;;;;;;;39.25;14.60;;;;;;;;;;8421489;28;20041;-85
2022/12/12 01:02:35;;;;;;;33.85;14.30;;;;;;;;;;8420219;28;20048;-88
2022/12/12 01:06:39;;;;;;;29.25;13.40;;;;;;;;;;8422270;28;20056;-89
2022/12/12 01:10:42;;;;;;;25.35;12.57;;;;;;;;;;8422968;28;20051;-82
2022/12/12 01:14:46;;;;;;;33.65;13.52;;;;;;;;;;8423489;28;20074;-83
2022/12/12 01:19:09;;;;;;;31.90;14.50;;;;;;;;;;8425976;28;20048;-83
2022/12/12 01:23:12;;;;;;;37.63;14.43;;;;;;;;;;8427381;28;20055;-83
2022/12/12 01:27:24;;;;;;;;;;;;;;;;;;8425528;28;20073;-85
2022/12/12 01:31:28;;;;;;;40.60;14.35;;;;;;;;;;8422350;28;19908;-82
2022/12/12 01:35:32;;;;;;;32.10;12.48;;;;;;;;;;8422117;28;20048;-82
2022/12/12 01:39:37;;;;;;;27.77;13.73;;;;;;;;;;8424771;28;20059;-81
2022/12/12 01:43:40;;;;;;;18.83;7.85;;;;;;;;;;8422816;28;20197;-85
2022/12/12 01:47:44;;;;;;;19.10;8.05;;;;;;;;;;8422686;28;20097;-83
2022/12/12 01:51:48;;;;;;;32.53;14.88;;;;;;;;;;8419867;28;20024;-84
2022/12/12 01:55:53;;;;;;;31.92;14.48;;;;;;;;;;8423452;28;20070;-82
2022/12/12 01:59:58;;;;;;;34.80;14.02;;;;;;;;;;8419998;28;20064;-82
2022/12/12 02:04:03;;;;;;;26.05;10.70;;;;;;;;;;8394749;28;20060;-82
2022/12/12 02:08:07;;;;;;;29.92;13.05;;;;;;;;;;8390016;28;20045;-84
2022/12/12 02:12:13;;;;;;;32.85;13.23;;;;;;;;;;8391609;28;20052;-83
2022/12/12 02:16:25;;;;;;;28.70;11.80;;;;;;;;;;8392107;28;20044;-81
2022/12/12 02:20:51;;;;;;;28.48;11.82;;;;;;;;;;8391969;28;20061;-81
2022/12/12 02:25:30;;;;;;;29.60;12.95;;;;;;;;;;8395907;28;20079;-81
2022/12/12 02:29:58;;;;;;;33.28;11.88;;;;;;;;;;8364137;28;20045;-82
2022/12/12 02:34:07;;;;;;;29.48;13.13;;;;;;;;;;8390112;28;20067;-80
2022/12/12 02:38:25;;;;;;;29.38;11.50;;;;;;;;;;8390650;28;20049;-81
2022/12/12 02:42:39;;;;;;;32.25;12.73;;;;;;;;;;8389571;28;20112;-83
2022/12/12 02:46:47;;;;;;;37.70;14.02;;;;;;;;;;8416858;28;20060;-81
2022/12/12 02:50:54;;;;;;;32.38;14.23;;;;;;;;;;8421959;28;20104;-81
2022/12/12 02:54:57;;;;;;;28.60;10.85;;;;;;;;;;8424839;28;20127;-80
2022/12/12 02:59:00;;;;;;;36.63;13.85;;;;;;;;;;8426410;28;20454;-81
2022/12/12 03:07:53;;;;;;;29.13;12.65;;;;;;;;;;8425096;28;20108;-81
2022/12/12 03:12:04;;;;;;;31.92;12.88;;;;;;;;;;8423865;28;20049;-82
2022/12/12 03:16:21;;;;;;;26.23;10.95;;;;;;;;;;8422512;28;20040;-84
2022/12/12 03:20:28;;;;;;;24.20;11.18;;;;;;;;;;8421794;28;20041;-94
2022/12/12 03:24:36;;;;;;;23.48;10.13;;;;;;;;;;8425612;28;20548;-84
2022/12/12 03:28:43;;;;;;;29.90;11.80;;;;;;;;;;8428134;28;20045;-80
2022/12/12 03:32:50;;;;;;;23.52;10.68;;;;;;;;;;8430560;28;20819;-81
2022/12/12 03:36:56;;;;;;;24.48;10.73;;;;;;;;;;8427964;28;20033;-82
2022/12/12 03:41:03;;;;;;;29.58;11.63;;;;;;;;;;8427213;28;20044;-81
2022/12/12 03:45:10;;;;;;;28.45;12.73;;;;;;;;;;8426367;28;20048;-82
2022/12/12 03:49:17;;;;;;;31.67;14.43;;;;;;;;;;8426841;28;20045;-82
2022/12/12 03:53:25;;;;;;;29.92;12.73;;;;;;;;;;8421323;28;20052;-82
2022/12/12 03:57:34;;;;;;;25.42;11.52;;;;;;;;;;8424067;28;20056;-88
2022/12/12 04:01:44;;;;;;;35.28;15.38;;;;;;;;;;8429270;28;20028;-81
2022/12/12 04:15:01;;;;;;;30.20;12.40;;;;;;;;;;8430799;28;20064;-81
2022/12/12 04:19:09;;;;;;;43.67;15.77;;;;;;;;;;8433863;28;20051;-81
2022/12/12 04:23:19;;;;;;;31.40;14.05;;;;;;;;;;8432667;28;20028;-81
2022/12/12 04:27:26;;;;;;;38.67;14.65;;;;;;;;;;8433967;28;20076;-81
2022/12/12 04:31:37;;;;;;;37.38;12.88;;;;;;;;;;8430482;28;20025;-82
2022/12/12 04:35:45;;;;;;;31.88;13.80;;;;;;;;;;8429927;28;20055;-81
2022/12/12 04:39:52;;;;;;;22.65;10.77;;;;;;;;;;8428130;28;20108;-81
2022/12/12 04:43:56;;;;;;;32.42;14.63;;;;;;;;;;8429055;28;20033;-81
2022/12/12 04:48:05;;;;;;;24.88;10.73;;;;;;;;;;8426100;28;20048;-82
2022/12/12 04:52:11;;;;;;;33.45;13.82;;;;;;;;;;8430172;28;20044;-80
2022/12/12 04:56:17;;;;;;;34.78;12.63;;;;;;;;;;8433426;28;20052;-81
2022/12/12 05:00:20;;;;;;;30.90;12.80;;;;;;;;;;8431419;28;20120;-81
2022/12/12 05:04:31;;;;;;;32.17;13.38;;;;;;;;;;8433858;28;20408;-82
2022/12/12 05:08:37;;;;;;;34.70;13.50;;;;;;;;;;8431234;28;20028;-84
2022/12/12 05:12:42;;;;;;;32.25;14.68;;;;;;;;;;8429676;28;20037;-82
2022/12/12 05:16:48;;;;;;;33.97;13.02;;;;;;;;;;8428236;28;20090;-80
2022/12/12 05:20:52;;;;;;;38.60;14.93;;;;;;;;;;8430175;28;20079;-81
2022/12/12 05:24:54;;;;;;;29.45;11.88;;;;;;;;;;8427121;28;20045;-82
2022/12/12 05:28:58;;;;;;;40.33;19.30;;;;;;;;;;8422517;28;20041;-82
2022/12/12 05:33:08;;;;;;;36.50;17.52;;;;;;;;;;8418238;28;20045;-82
2022/12/12 05:37:12;;;;;;;30.58;14.40;;;;;;;;;;8421686;28;20057;-81
2022/12/12 05:41:15;;;;;;;31.95;13.30;;;;;;;;;;8423300;28;20052;-81
2022/12/12 05:45:18;;;;;;;34.10;14.38;;;;;;;;;;8416074;28;20028;-82
2022/12/12 05:49:21;;;;;;;38.80;15.48;;;;;;;;;;8421186;28;20127;-81
2022/12/12 05:53:25;;;;;;;45.55;15.88;;;;;;;;;;8422384;28;20048;-81
2022/12/12 05:57:27;;;;;;;28.38;11.90;;;;;;;;;;8418990;28;20045;-81
2022/12/12 06:01:30;;;;;;;44.20;16.92;;;;;;;;;;8419437;28;20067;-81
2022/12/12 06:05:33;;;;;;;27.60;13.05;;;;;;;;;;8413657;28;20044;-81
2022/12/12 06:09:37;;;;;;;40.25;15.45;;;;;;;;;;8417979;28;20068;-80
2022/12/12 06:13:40;;;;;;;24.85;13.32;;;;;;;;;;8421213;28;20048;-80
2022/12/12 06:17:45;;;;;;;31.77;13.27;;;;;;;;;;8420342;28;20513;-81
2022/12/12 06:21:50;;;;;;;26.13;11.20;;;;;;;;;;8419624;28;20040;-82
2022/12/12 06:25:55;;;;;;;28.42;13.23;;;;;;;;;;8416637;28;20037;-81
2022/12/12 06:29:57;;;;;;;29.08;13.30;;;;;;;;;;8415908;28;20074;-81
2022/12/12 06:34:00;;;;;;;29.35;12.05;;;;;;;;;;8406771;28;20036;-82
2022/12/12 06:38:03;;;;;;;28.55;12.55;;;;;;;;;;8408860;28;20045;-82
2022/12/12 06:42:09;;;;;;;29.33;13.23;;;;;;;;;;8407106;28;20032;-82
2022/12/12 06:46:24;;;;;;;36.85;15.90;;;;;;;;;;8410506;28;20148;-82
2022/12/12 06:50:27;;;;;;;53.38;20.42;;;;;;;;;;8404792;28;20059;-83
2022/12/12 06:54:29;;;;;;;32.17;14.82;;;;;;;;;;8408792;28;20964;-82
2022/12/12 06:58:34;;;;;;;29.65;14.13;;;;;;;;;;8405190;28;20067;-83
2022/12/12 07:02:36;;;;;;;38.20;15.98;;;;;;;;;;8395930;28;20113;-81
2022/12/12 07:06:39;;;;;;;21.98;10.85;;;;;;;;;;8416800;28;20071;-81
2022/12/12 07:10:43;;;;;;;28.67;12.35;;;;;;;;;;8396628;28;20067;-88
2022/12/12 07:14:47;;;;;;;42.38;18.65;;;;;;;;;;8395607;28;20487;-82
2022/12/12 07:18:50;;;;;;;40.35;17.15;;;;;;;;;;8396181;28;20399;-82
2022/12/12 07:22:52;;;;;;;29.20;14.77;;;;;;;;;;8395719;28;20044;-84
2022/12/12 07:26:55;;;;;;;38.13;16.65;;;;;;;;;;8395863;28;20153;-95
2022/12/12 07:31:01;;;;;;;27.77;13.82;;;;;;;;;;8392625;28;20041;-83
2022/12/12 07:35:03;;;;;;;37.78;16.33;;;;;;;;;;8381102;28;20102;-82
2022/12/12 07:39:06;;;;;;;37.85;16.10;;;;;;;;;;8398823;28;20052;-81
2022/12/12 07:43:09;;;;;;;38.78;15.30;;;;;;;;;;8401672;28;20102;-82
2022/12/12 07:47:13;;;;;;;33.55;15.27;;;;;;;;;;8418124;28;20431;-85
2022/12/12 07:51:16;;;;;;;38.38;16.48;;;;;;;;;;8406768;28;20071;-94
2022/12/12 07:55:18;;;;;;;31.50;14.38;;;;;;;;;;8407457;28;20052;-85
2022/12/12 07:59:21;;;;;;;42.85;16.67;;;;;;;;;;8409228;28;20045;-91
2022/12/12 08:03:26;;;;;;;40.95;16.48;;;;;;;;;;8405724;28;20083;-88
2022/12/12 08:07:28;;;;;;;33.28;16.02;;;;;;;;;;8401664;28;20080;-92
2022/12/12 08:11:31;;;;;;;32.53;14.98;;;;;;;;;;8401379;28;20101;-86
2022/12/12 08:15:34;;;;;;;21.92;10.20;;;;;;;;;;8401685;28;20137;-85
2022/12/12 08:19:38;;;;;;;31.17;15.13;;;;;;;;;;8401620;28;20130;-87
2022/12/12 08:23:41;;;;;;;33.35;14.48;;;;;;;;;;8401370;28;20044;-90
2022/12/12 08:27:44;;;;;;;27.52;13.30;;;;;;;;;;8401324;28;20483;-93
2022/12/12 08:31:47;;;;;;;13.82;5.90;;;;;;;;;;8391453;28;20093;-82
2022/12/12 08:35:51;;;;;;;22.17;11.68;;;;;;;;;;8392635;28;20044;-93
2022/12/12 08:39:54;;;;;;;26.73;13.60;;;;;;;;;;8398835;28;20510;-89
2022/12/12 08:43:57;;;;;;;29.35;13.18;;;;;;;;;;8394446;28;20044;-82
2022/12/12 08:47:59;;;;;;;26.42;13.95;;;;;;;;;;8392795;28;20129;-93
2022/12/12 08:52:08;;;;;;;21.42;10.68;;;;;;;;;;8401220;28;20052;-86
2022/12/12 08:56:11;;;;;;;27.77;12.25;;;;;;;;;;8401096;28;20124;-84
2022/12/12 09:00:15;;;;;;;18.95;9.23;;;;;;;;;;8400469;28;20156;-88
2022/12/12 09:04:18;;;;;;;24.00;11.75;;;;;;;;;;8400592;28;20441;-91
2022/12/12 09:08:22;;;;;;;26.42;12.95;;;;;;;;;;8396760;28;20049;-90
2022/12/12 09:12:25;;;;;;;22.55;11.43;;;;;;;;;;8396721;28;20132;-84
2022/12/12 09:16:28;;;;;;;26.67;13.48;;;;;;;;;;8419122;28;20040;-92
2022/12/12 09:20:32;;;;;;;25.27;12.32;;;;;;;;;;8424135;28;20123;-92
2022/12/12 09:24:37;;;;;;;24.67;12.38;;;;;;;;;;8395716;28;20053;-92
2022/12/12 09:28:41;;;;;;;21.73;10.63;;;;;;;;;;8427507;28;20048;-93
2022/12/12 09:32:44;;;;;;;26.80;12.07;;;;;;;;;;8401459;28;20041;-92
2022/12/12 09:36:47;;;;;;;26.90;12.68;;;;;;;;;;8402079;28;20044;-92
2022/12/12 09:40:54;;;;;;;24.55;12.25;;;;;;;;;;8389275;28;20108;-92
2022/12/12 09:45:05;;;;;;;24.45;11.30;;;;;;;;;;8399209;28;20041;-96
2022/12/12 09:49:23;;;;;;;25.10;12.57;;;;;;;;;;8400249;28;20162;-94
2022/12/12 09:53:26;;;;;;;21.85;10.32;;;;;;;;;;8393617;28;20047;-92
2022/12/12 09:57:37;;;;;;;19.75;9.18;;;;;;;;;;8397376;28;20040;-91
2022/12/12 10:01:56;;;;;;;20.35;11.57;;;;;;;;;;8400472;28;20066;-88
2022/12/12 10:06:05;;;;;;;23.15;11.88;;;;;;;;;;8428137;28;20068;-93
2022/12/12 10:10:17;;;;;;;22.08;11.32;;;;;;;;;;8412775;28;20056;-88
2022/12/12 10:14:24;;;;;;;;;;;;;;;;;;8412793;28;20051;-93
2022/12/12 10:18:32;;;;;;;28.42;12.85;;;;;;;;;;8412289;28;19920;-82
2022/12/12 10:22:41;;;;;;;21.63;10.98;;;;;;;;;;8411206;28;20134;-91
2022/12/12 10:26:46;;;;;;;29.60;12.25;;;;;;;;;;8384756;28;20399;-88
2022/12/12 10:31:06;;;;;;;20.55;11.18;;;;;;;;;;8396378;28;20058;-96
2022/12/12 10:35:20;;;;;;;20.02;10.77;;;;;;;;;;8403885;28;20044;-93
2022/12/12 10:39:33;;;;;;;23.67;11.18;;;;;;;;;;8394223;28;20045;-93
2022/12/12 10:43:44;;;;;;;20.42;10.52;;;;;;;;;;8411974;28;20044;-94
2022/12/12 10:47:49;;;;;;;19.50;8.47;;;;;;;;;;8403584;28;20040;-92
2022/12/12 10:51:53;;;;;;;27.27;12.80;;;;;;;;;;8414109;28;20127;-93
2022/12/12 10:56:02;;;;;;;24.42;11.07;;;;;;;;;;8389174;28;20044;-83
2022/12/12 11:00:25;;;;;;;21.30;10.68;;;;;;;;;;8400443;28;20127;-91
2022/12/12 11:04:32;;;;;;;23.60;10.55;;;;;;;;;;8393857;28;20051;-91
2022/12/12 11:08:36;;;;;;;20.58;9.23;;;;;;;;;;8404361;28;20128;-82
2022/12/12 11:12:40;;;;;;;26.77;13.13;;;;;;;;;;8393037;28;20083;-94
2022/12/12 11:16:44;;;;;;;18.33;10.05;;;;;;;;;;8389349;28;20123;-93
2022/12/12 11:20:51;;;;;;;21.95;10.85;;;;;;;;;;8394932;28;20098;-93
2022/12/12 11:24:54;;;;;;;22.35;10.63;;;;;;;;;;8394846;28;20123;-93
2022/12/12 11:28:59;;;;;;;22.80;12.65;;;;;;;;;;8405654;28;20069;-92
2022/12/12 11:33:03;;;;;;;26.83;12.48;;;;;;;;;;8410715;28;20041;-92
2022/12/12 11:37:15;;;;;;;28.77;13.63;;;;;;;;;;8396124;28;20049;-91
2022/12/12 11:41:18;;;;;;;;;;;;;;;;;;8396711;28;20044;-92
2022/12/12 11:45:21;;;;;;;;;;;;;;;;;;8391846;28;19921;-92
2022/12/12 11:49:24;;;;;;;26.75;13.52;;;;;;;;;;8409349;28;19924;-92
2022/12/12 11:53:30;;;;;;;25.65;13.13;;;;;;;;;;8415485;28;20056;-91
2022/12/12 11:57:48;;;;;;;32.90;15.55;;;;;;;;;;8429208;28;20052;-91
2022/12/12 12:02:00;;;;;;;25.27;14.40;;;;;;;;;;8426609;28;20043;-93
2022/12/12 12:06:30;;;;;;;26.30;14.25;;;;;;;;;;8407368;28;20044;-92
2022/12/12 12:10:50;;;;;;;28.52;13.55;;;;;;;;;;8390912;28;20056;-90
2022/12/12 12:15:08;;;;;;;25.42;12.95;;;;;;;;;;8401676;28;20044;-89
2022/12/12 12:19:19;;;;;;;29.88;12.43;;;;;;;;;;8402655;28;20056;-90
2022/12/12 12:23:30;;;;;;;13.43;6.70;;;;;;;;;;8386899;28;20048;-93
2022/12/12 12:27:40;;;;;;;37.10;15.65;;;;;;;;;;8409839;28;20377;-91
2022/12/12 12:31:53;;;;;;;29.73;12.82;;;;;;;;;;8400772;28;20063;-93
2022/12/12 12:36:12;;;;;;;31.98;15.55;;;;;;;;;;8405148;28;20135;-94
2022/12/12 12:40:32;;;;;;;33.05;15.50;;;;;;;;;;8414974;28;20056;-90
2022/12/12 12:44:48;;;;;;;32.40;15.15;;;;;;;;;;8411094;28;20052;-91
2022/12/12 12:48:56;;;;;;;31.25;13.25;;;;;;;;;;8413684;28;20040;-93
2022/12/12 12:53:03;;;;;;;31.80;15.10;;;;;;;;;;8421433;28;20044;-92
2022/12/12 12:57:10;;;;;;;29.67;14.95;;;;;;;;;;8427118;28;20089;-89
2022/12/12 13:01:21;;;;;;;29.52;15.95;;;;;;;;;;8396838;28;20053;-85
2022/12/12 13:05:31;;;;;;;26.52;12.50;;;;;;;;;;8399918;28;20048;-89
2022/12/12 13:09:41;;;;;;;30.50;14.35;;;;;;;;;;8424704;28;20055;-89
2022/12/12 13:13:46;;;;;;;28.05;15.07;;;;;;;;;;8404263;28;20040;-89
2022/12/12 13:17:58;;;;;;;28.30;14.38;;;;;;;;;;8399717;28;20041;-91
2022/12/12 13:22:06;;;;;;;23.67;12.87;;;;;;;;;;8399624;28;20045;-89
2022/12/12 13:26:17;;;;;;;32.05;14.23;;;;;;;;;;8399430;28;20135;-89
2022/12/12 13:30:23;;;;;;;44.97;29.75;;;;;;;;;;8399552;28;20413;-92
2022/12/12 13:34:29;;;;;;;29.85;16.23;;;;;;;;;;8398637;28;20790;-86
2022/12/12 13:38:34;;;;;;;34.60;15.07;;;;;;;;;;8399025;28;20044;-90
2022/12/12 13:42:55;;;;;;;27.73;13.48;;;;;;;;;;8399389;28;20044;-89
2022/12/12 13:46:58;;;;;;;32.58;14.43;;;;;;;;;;8399208;28;20091;-90
2022/12/12 13:51:33;;;;;;;36.65;14.55;;;;;;;;;;8398434;28;20051;-92
2022/12/12 13:55:37;;;;;;;31.70;13.65;;;;;;;;;;8350570;28;20060;-82
2022/12/12 14:00:21;;;;;;;31.80;14.85;;;;;;;;;;8398348;28;20072;-88
2022/12/12 14:04:28;;;;;;;36.92;16.92;;;;;;;;;;8376697;28;20053;-90
2022/12/12 14:08:34;;;;;;;34.63;17.52;;;;;;;;;;8397934;28;20510;-92
2022/12/12 14:12:38;;;;;;;39.83;17.60;;;;;;;;;;8397827;28;20060;-87
2022/12/12 14:16:41;;;;;;;36.63;16.45;;;;;;;;;;8397824;28;20044;-90
2022/12/12 14:20:53;;;;;;;30.10;13.25;;;;;;;;;;8397626;28;20143;-92
2022/12/12 14:25:06;;;;;;;33.10;14.18;;;;;;;;;;8392317;28;20049;-87
2022/12/12 14:29:27;;;;;;;29.23;13.35;;;;;;;;;;8364668;28;20551;-92
2022/12/12 14:33:53;;;;;;;22.55;9.77;;;;;;;;;;8396947;28;20064;-91
2022/12/12 14:38:09;;;;;;;26.52;13.00;;;;;;;;;;8397909;28;20538;-85
2022/12/12 14:42:25;;;;;;;6.40;4.03;;;;;;;;;;8397240;28;20083;-90
2022/12/12 14:46:30;;;;;;;29.30;13.75;;;;;;;;;;8397108;28;20045;-86
2022/12/12 14:50:33;;;;;;;25.42;11.35;;;;;;;;;;8396624;28;20131;-91
2022/12/12 14:54:36;;;;;;;20.92;9.60;;;;;;;;;;8396983;28;20044;-83
2022/12/12 14:58:43;;;;;;;21.58;9.88;;;;;;;;;;8396984;28;20081;-92
2022/12/12 15:02:51;;;;;;;24.67;12.00;;;;;;;;;;8396696;28;20143;-90
2022/12/12 15:06:55;;;;;;;26.45;12.88;;;;;;;;;;8396664;28;20048;-92
2022/12/12 15:10:59;;;;;;;19.20;8.98;;;;;;;;;;8396504;28;20053;-92
2022/12/12 15:15:05;;;;;;;19.25;10.25;;;;;;;;;;8396600;28;20047;-82
2022/12/12 15:19:14;;;;;;;22.90;10.75;;;;;;;;;;8397258;28;20044;-92
2022/12/12 15:23:19;;;;;;;20.45;10.55;;;;;;;;;;8394160;28;20056;-90
2022/12/12 15:27:29;;;;;;;21.85;10.98;;;;;;;;;;8389602;28;20047;-91
2022/12/12 15:31:33;;;;;;;13.90;6.38;;;;;;;;;;8382378;28;20102;-91
2022/12/12 15:35:36;;;;;;;23.20;10.82;;;;;;;;;;8388605;28;20064;-87
2022/12/12 15:39:38;;;;;;;16.70;8.25;;;;;;;;;;8374883;28;20484;-89
2022/12/12 15:43:43;;;;;;;27.15;11.13;;;;;;;;;;8390333;28;20040;-90
2022/12/12 15:47:50;;;;;;;22.38;10.85;;;;;;;;;;8401740;28;20564;-88
2022/12/12 15:51:53;;;;;;;20.52;9.68;;;;;;;;;;8399664;28;20455;-84
2022/12/12 15:55:59;;;;;;;17.10;8.65;;;;;;;;;;8390862;28;20472;-91
2022/12/12 16:00:07;;;;;;;19.63;10.00;;;;;;;;;;8392123;28;20049;-94
2022/12/12 16:04:25;;;;;;;21.27;10.60;;;;;;;;;;8412419;28;20048;-89
2022/12/12 16:08:44;;;;;;;20.83;9.65;;;;;;;;;;8391016;28;20048;-89
2022/12/12 16:13:01;;;;;;;20.38;9.27;;;;;;;;;;8393860;28;20080;-88
2022/12/12 16:17:06;;;;;;;21.65;9.65;;;;;;;;;;8401280;28;20412;-89
2022/12/12 16:21:10;;;;;;;18.02;9.60;;;;;;;;;;8400924;28;20090;-85
2022/12/12 16:25:18;;;;;;;25.42;9.93;;;;;;;;;;8400797;28;20044;-89
2022/12/12 16:29:20;;;;;;;26.50;12.07;;;;;;;;;;8400694;28;20450;-89
2022/12/12 16:33:30;;;;;;;25.00;12.27;;;;;;;;;;8400428;28;20070;-90
2022/12/12 16:37:34;;;;;;;20.88;10.80;;;;;;;;;;8400818;28;20492;-87
2022/12/12 16:41:38;;;;;;;19.80;9.75;;;;;;;;;;8411094;28;20074;-90
2022/12/12 16:45:41;;;;;;;17.58;8.07;;;;;;;;;;8401974;28;20131;-90
2022/12/12 16:49:44;;;;;;;19.25;9.32;;;;;;;;;;8400578;28;20492;-85
2022/12/12 16:53:49;;;;;;;23.13;10.50;;;;;;;;;;8399919;28;20044;-90
2022/12/12 16:57:52;;;;;;;20.55;9.18;;;;;;;;;;8404837;28;20097;-86
2022/12/12 17:01:55;;;;;;;26.88;11.48;;;;;;;;;;8408306;28;20072;-85
2022/12/12 17:05:58;;;;;;;22.77;11.35;;;;;;;;;;8399286;28;20044;-83
2022/12/12 17:10:02;;;;;;;21.98;10.80;;;;;;;;;;8398108;28;20044;-83
2022/12/12 17:14:06;;;;;;;25.38;11.88;;;;;;;;;;8399312;28;20041;-88
2022/12/12 17:18:08;;;;;;;29.40;12.55;;;;;;;;;;8399207;28;20115;-85
2022/12/12 17:22:11;;;;;;;33.50;14.45;;;;;;;;;;8399197;28;20047;-88
2022/12/12 17:26:16;;;;;;;25.13;11.50;;;;;;;;;;8398696;28;20045;-89
2022/12/12 17:30:20;;;;;;;26.95;11.65;;;;;;;;;;8398800;28;20101;-90
2022/12/12 17:34:23;;;;;;;30.83;14.82;;;;;;;;;;8398699;28;20045;-82
2022/12/12 17:38:26;;;;;;;25.65;11.88;;;;;;;;;;8398569;28;20048;-89
2022/12/12 17:42:32;;;;;;;33.28;16.13;;;;;;;;;;8398202;28;20048;-88
2022/12/12 17:46:35;;;;;;;37.25;15.75;;;;;;;;;;8412520;28;20484;-90
2022/12/12 17:50:39;;;;;;;39.13;17.77;;;;;;;;;;8398026;28;20120;-89
2022/12/12 17:54:42;;;;;;;41.25;16.50;;;;;;;;;;8405237;28;20044;-91
2022/12/12 17:58:49;;;;;;;28.15;12.77;;;;;;;;;;8404704;28;20102;-90
2022/12/12 18:02:54;;;;;;;34.45;15.85;;;;;;;;;;8397792;28;20064;-83
2022/12/12 18:06:57;;;;;;;23.77;11.05;;;;;;;;;;8396548;28;20140;-89
2022/12/12 18:11:01;;;;;;;23.92;10.13;;;;;;;;;;8397242;28;20060;-91
2022/12/12 18:15:07;;;;;;;33.97;16.08;;;;;;;;;;8397491;28;20044;-82
2022/12/12 18:19:11;;;;;;;14.90;7.63;;;;;;;;;;8397393;28;20052;-89
2022/12/12 18:23:14;;;;;;;26.98;13.13;;;;;;;;;;8396992;28;20045;-90
2022/12/12 18:27:17;;;;;;;31.55;14.27;;;;;;;;;;8397171;28;20116;-88
2022/12/12 18:31:22;;;;;;;32.55;15.25;;;;;;;;;;8396961;28;20453;-89
2022/12/12 18:35:25;;;;;;;36.25;17.33;;;;;;;;;;8396771;28;20135;-87
2022/12/12 18:39:29;;;;;;;38.17;16.23;;;;;;;;;;8396938;28;20040;-87
2022/12/12 18:43:34;;;;;;;35.03;15.70;;;;;;;;;;8396507;28;20045;-88
2022/12/12 18:47:39;;;;;;;33.22;16.17;;;;;;;;;;8396292;28;20496;-90
2022/12/12 18:51:44;;;;;;;41.25;19.65;;;;;;;;;;8407077;28;20074;-80
2022/12/12 18:55:52;;;;;;;31.17;13.73;;;;;;;;;;8396679;28;20119;-82
2022/12/12 18:59:59;;;;;;;35.08;16.05;;;;;;;;;;8392367;28;20093;-84
2022/12/12 19:04:07;;;;;;;29.42;13.73;;;;;;;;;;8397068;28;20047;-83
2022/12/12 19:08:13;;;;;;;30.58;15.55;;;;;;;;;;8403289;28;20067;-82
2022/12/12 19:12:18;;;;;;;31.67;13.50;;;;;;;;;;8395849;28;20060;-91
2022/12/12 19:16:36;;;;;;;37.20;17.00;;;;;;;;;;8395998;28;20472;-83
2022/12/12 19:20:42;;;;;;;30.90;13.75;;;;;;;;;;8395503;28;20539;-86
2022/12/12 19:24:47;;;;;;;29.73;14.40;;;;;;;;;;8393724;28;20049;-90
2022/12/12 19:28:51;;;;;;;33.03;15.93;;;;;;;;;;8395496;28;20053;-90
2022/12/12 19:32:59;;;;;;;34.38;14.82;;;;;;;;;;8397396;28;20094;-87
2022/12/12 19:37:09;;;;;;;29.42;12.90;;;;;;;;;;8383303;28;20062;-83
2022/12/12 19:41:15;;;;;;;33.42;14.38;;;;;;;;;;8402424;28;20212;-86
2022/12/12 19:45:21;;;;;;;28.30;13.65;;;;;;;;;;8402155;28;20481;-84
2022/12/12 19:49:28;;;;;;;31.13;14.98;;;;;;;;;;8383435;28;20098;-91
2022/12/12 19:53:37;;;;;;;24.65;12.18;;;;;;;;;;8396843;28;20447;-81
2022/12/12 19:57:41;;;;;;;31.05;13.70;;;;;;;;;;8392960;28;20040;-89
2022/12/12 20:01:47;;;;;;;30.00;13.65;;;;;;;;;;8379340;28;20044;-93
2022/12/12 20:06:01;;;;;;;24.65;13.02;;;;;;;;;;8400204;28;20480;-91
2022/12/12 20:10:10;;;;;;;27.70;12.37;;;;;;;;;;8400957;28;20045;-85
2022/12/12 20:14:16;;;;;;;31.83;15.55;;;;;;;;;;8392385;28;20059;-84
2022/12/12 20:18:20;;;;;;;17.55;8.20;;;;;;;;;;8398646;28;20054;-89
2022/12/12 20:22:24;;;;;;;16.17;8.93;;;;;;;;;;8399554;28;20048;-89
2022/12/12 20:26:34;;;;;;;29.70;14.00;;;;;;;;;;8400918;28;20071;-91
2022/12/12 20:30:39;;;;;;;29.67;14.00;;;;;;;;;;8397056;28;20094;-89
2022/12/12 20:34:47;;;;;;;27.38;14.10;;;;;;;;;;8368557;28;20048;-91
2022/12/12 20:38:53;;;;;;;31.50;13.82;;;;;;;;;;8398688;28;20058;-92
2022/12/12 20:42:58;;;;;;;27.98;13.80;;;;;;;;;;8401058;28;20499;-88
2022/12/12 20:47:02;;;;;;;29.83;14.75;;;;;;;;;;8399582;28;20048;-90
2022/12/12 20:51:09;;;;;;;33.03;14.70;;;;;;;;;;8400604;28;20118;-88
2022/12/12 20:55:12;;;;;;;24.00;11.25;;;;;;;;;;8399934;28;20044;-85
2022/12/12 20:59:18;;;;;;;29.42;14.32;;;;;;;;;;8399526;28;20054;-81
2022/12/12 21:03:21;;;;;;;32.20;13.60;;;;;;;;;;8399562;28;20183;-81
2022/12/12 21:07:24;;;;;;;38.17;14.77;;;;;;;;;;8398908;28;20052;-91
2022/12/12 21:11:28;;;;;;;31.83;14.02;;;;;;;;;;8385715;28;20049;-91
2022/12/12 21:15:33;;;;;;;31.02;14.02;;;;;;;;;;8399734;28;20056;-83
2022/12/12 21:19:36;;;;;;;33.67;13.77;;;;;;;;;;8401945;28;20553;-87
2022/12/12 21:23:43;;;;;;;12.52;5.70;;;;;;;;;;8401818;28;21381;-92
2022/12/12 21:27:46;;;;;;;26.52;12.57;;;;;;;;;;8399116;28;20048;-87
2022/12/12 21:31:50;;;;;;;21.35;9.55;;;;;;;;;;8400526;28;20517;-90
2022/12/12 21:35:53;;;;;;;31.88;12.45;;;;;;;;;;8398425;28;20514;-91
2022/12/12 21:39:57;;;;;;;33.67;16.15;;;;;;;;;;8398915;28;20056;-82
2022/12/12 21:44:00;;;;;;;27.52;13.20;;;;;;;;;;8398021;28;20041;-90
2022/12/12 21:48:04;;;;;;;33.45;14.43;;;;;;;;;;8396372;28;20131;-80
2022/12/12 21:52:10;;;;;;;27.95;13.60;;;;;;;;;;8396710;28;20044;-87
2022/12/12 21:56:16;;;;;;;22.23;11.55;;;;;;;;;;8410046;28;20067;-83
2022/12/12 22:00:19;;;;;;;22.77;11.35;;;;;;;;;;8397104;28;20040;-90
2022/12/12 22:04:24;;;;;;;27.80;13.85;;;;;;;;;;8404880;28;20138;-86
2022/12/12 22:08:27;;;;;;;24.63;11.00;;;;;;;;;;8397079;28;20059;-88
2022/12/12 22:12:30;;;;;;;30.48;13.48;;;;;;;;;;8408456;28;20076;-91
2022/12/12 22:16:34;;;;;;;29.45;13.93;;;;;;;;;;8383243;28;20059;-89
2022/12/12 22:20:38;;;;;;;24.20;10.13;;;;;;;;;;8396863;28;20487;-88
2022/12/12 22:24:40;;;;;;;23.80;12.68;;;;;;;;;;8396962;28;20559;-89
2022/12/12 22:28:44;;;;;;;22.35;12.23;;;;;;;;;;8396594;28;20049;-82
2022/12/12 22:32:46;;;;;;;32.45;14.32;;;;;;;;;;8396660;28;20056;-82
2022/12/12 22:36:52;;;;;;;29.30;13.60;;;;;;;;;;8393148;28;20044;-90
2022/12/12 22:40:55;;;;;;;22.70;11.45;;;;;;;;;;8396428;28;20040;-89
2022/12/12 22:44:58;;;;;;;12.80;7.00;;;;;;;;;;8396904;28;20052;-89
2022/12/12 22:49:02;;;;;;;19.30;10.43;;;;;;;;;;8396390;28;20052;-86
2022/12/12 22:53:06;;;;;;;25.77;11.65;;;;;;;;;;8395425;28;20048;-89
2022/12/12 22:57:09;;;;;;;23.73;12.23;;;;;;;;;;8395575;28;20032;-88
2022/12/12 23:01:13;;;;;;;25.30;12.32;;;;;;;;;;8395510;28;20044;-88
2022/12/12 23:05:16;;;;;;;25.38;12.13;;;;;;;;;;8395274;28;20079;-89
2022/12/12 23:09:24;;;;;;;24.65;12.55;;;;;;;;;;8394083;28;20450;-90
2022/12/12 23:13:27;;;;;;;16.13;9.13;;;;;;;;;;8395019;28;20488;-86
2022/12/12 23:17:30;;;;;;;27.80;13.10;;;;;;;;;;8398555;28;20063;-89
2022/12/12 23:21:36;;;;;;;28.52;12.55;;;;;;;;;;8395405;28;20496;-85
2022/12/12 23:25:40;;;;;;;26.73;10.73;;;;;;;;;;8395239;28;20051;-83
2022/12/12 23:29:43;;;;;;;26.38;14.18;;;;;;;;;;8394872;28;20053;-88
2022/12/12 23:33:46;;;;;;;25.70;11.43;;;;;;;;;;8394959;28;20094;-89
2022/12/12 23:37:49;;;;;;;29.35;12.52;;;;;;;;;;8395025;28;20484;-88
2022/12/12 23:41:53;;;;;;;26.55;13.30;;;;;;;;;;8395006;28;20052;-87
2022/12/12 23:45:55;;;;;;;26.13;13.02;;;;;;;;;;8388587;28;20127;-89
2022/12/12 23:49:58;;;;;;;24.65;13.45;;;;;;;;;;8394604;28;20044;-89
2022/12/12 23:54:03;;;;;;;23.38;10.98;;;;;;;;;;8394543;28;20045;-86
2022/12/12 23:58:07;;;;;;;27.83;13.30;;;;;;;;;;8394850;28;20124;-87
